createdAt,value
2019-04-29T00:03:17.659Z,8.90
2019-04-29T00:08:23.071Z,9.20
2019-04-29T00:13:28.955Z,9.30
2019-04-29T00:18:56.796Z,9.20
2019-04-29T00:24:03.885Z,9.30
2019-04-29T00:29:09.592Z,8.90
2019-04-29T00:34:15.243Z,9.00
2019-04-29T00:39:39.712Z,8.60
2019-04-29T00:44:45.483Z,8.40
2019-04-29T00:49:50.875Z,8.80
2019-04-29T00:55:05.781Z,8.70
2019-04-29T01:00:14.410Z,8.30
2019-04-29T01:05:22.511Z,8.60
2019-04-29T01:10:31.935Z,8.60
2019-04-29T01:15:37.214Z,8.60
2019-04-29T01:20:42.261Z,8.20
2019-04-29T01:25:49.668Z,8.30
2019-04-29T01:30:57.659Z,8.40
2019-04-29T01:36:40.916Z,8.50
2019-04-29T01:42:17.609Z,8.30
2019-04-29T01:47:22.887Z,8.10
2019-04-29T01:52:28.056Z,8.00
2019-04-29T01:57:33.034Z,8.00
2019-04-29T02:02:38.289Z,8.50
2019-04-29T02:07:43.180Z,8.50
2019-04-29T02:12:48.593Z,8.00
2019-04-29T02:17:53.828Z,7.50
2019-04-29T02:23:17.360Z,7.60
2019-04-29T02:28:22.628Z,7.50
2019-04-29T02:33:28.666Z,7.40
2019-04-29T02:38:42.842Z,7.60
2019-04-29T02:43:49.718Z,7.90
2019-04-29T02:48:54.542Z,7.70
2019-04-29T02:53:59.712Z,7.50
2019-04-29T02:59:05.831Z,7.70
2019-04-29T03:04:24.356Z,7.80
2019-04-29T03:09:30.962Z,7.50
2019-04-29T03:14:36.254Z,7.60
2019-04-29T03:20:00.573Z,6.30
2019-04-29T03:25:06.581Z,5.80
2019-04-29T03:30:11.885Z,7.10
2019-04-29T03:35:17.162Z,7.30
2019-04-29T03:40:22.411Z,7.50
2019-04-29T03:45:27.789Z,7.70
2019-04-29T03:50:32.970Z,7.80
2019-04-29T03:55:40.483Z,7.50
2019-04-29T04:00:46.900Z,7.80
2019-04-29T04:06:10.102Z,7.80
2019-04-29T04:11:15.452Z,7.60
2019-04-29T04:16:28.390Z,7.60
2019-04-29T04:21:33.826Z,7.70
2019-04-29T04:26:39.631Z,6.90
2019-04-29T04:31:44.679Z,7.10
2019-04-29T04:36:49.908Z,7.50
2019-04-29T04:41:55.093Z,7.40
2019-04-29T04:47:00.257Z,7.60
2019-04-29T04:52:05.179Z,8.00
2019-04-29T04:57:10.565Z,8.50
2019-04-29T05:02:15.723Z,8.60
2019-04-29T05:07:20.721Z,9.00
2019-04-29T05:12:25.632Z,9.40
2019-04-29T05:17:33.787Z,9.80
2019-04-29T05:22:39.157Z,9.50
2019-04-29T05:27:44.369Z,9.30
2019-04-29T05:32:49.748Z,9.30
2019-04-29T05:38:12.672Z,9.30
2019-04-29T05:43:21.052Z,9.60
2019-04-29T05:48:27.590Z,10.00
2019-04-29T05:53:43.209Z,10.20
2019-04-29T05:58:48.759Z,10.60
2019-04-29T06:03:54.199Z,11.40
2019-04-29T06:08:59.144Z,11.90
2019-04-29T06:14:04.714Z,12.30
2019-04-29T06:19:09.920Z,12.00
2019-04-29T06:24:15.244Z,12.20
2019-04-29T06:29:20.475Z,12.60
2019-04-29T06:34:26.111Z,12.60
2019-04-29T06:39:31.231Z,12.90
2019-04-29T06:44:36.185Z,12.90
2019-04-29T06:49:41.501Z,13.20
2019-04-29T06:54:46.638Z,13.60
2019-04-29T06:59:54.639Z,13.60
2019-04-29T07:04:59.057Z,12.90
2019-04-29T07:10:04.962Z,12.00
2019-04-29T07:15:12.319Z,13.40
2019-04-29T07:20:17.353Z,13.80
2019-04-29T07:25:24.701Z,13.80
2019-04-29T07:30:29.614Z,13.40
2019-04-29T07:35:38.003Z,13.10
2019-04-29T07:40:43.326Z,13.70
2019-04-29T07:46:03.566Z,13.60
2019-04-29T07:51:06.041Z,13.60
2019-04-29T07:56:10.964Z,13.50
2019-04-29T08:01:19.931Z,12.80
2019-04-29T08:06:22.670Z,13.00
2019-04-29T08:11:27.843Z,13.60
2019-04-29T08:16:33.155Z,14.00
2019-04-29T08:21:38.981Z,13.20
2019-04-29T08:26:47.296Z,13.00
2019-04-29T08:31:51.798Z,13.20
2019-04-29T08:36:58.267Z,13.20
2019-04-29T08:42:09.086Z,13.60
2019-04-29T08:47:22.977Z,13.80
2019-04-29T08:52:27.230Z,13.20
2019-04-29T08:57:36.648Z,13.90
2019-04-29T09:02:41.524Z,14.20
2019-04-29T09:07:47.883Z,15.80
2019-04-29T09:12:57.063Z,14.60
2019-04-29T09:18:03.252Z,13.90
2019-04-29T09:23:12.285Z,13.40
2019-04-29T09:28:27.158Z,13.70
2019-04-29T09:33:26.480Z,14.20
2019-04-29T09:38:32.442Z,15.00
2019-04-29T09:44:03.949Z,14.60
2019-04-29T09:49:08.647Z,14.30
2019-04-29T09:54:15.960Z,14.30
2019-04-29T09:59:32.840Z,14.60
2019-04-29T10:04:56.482Z,13.90
2019-04-29T10:09:57.362Z,14.00
2019-04-29T10:15:01.296Z,14.50
2019-04-29T10:20:15.354Z,14.40
2019-04-29T10:25:23.833Z,15.30
2019-04-29T10:30:32.378Z,15.10
2019-04-29T10:35:40.822Z,14.30
2019-04-29T10:41:10.671Z,15.10
2019-04-29T10:46:34.538Z,14.90
2019-04-29T10:51:39.925Z,15.30
2019-04-29T10:56:46.238Z,14.90
2019-04-29T11:02:49.769Z,15.10
2019-04-29T11:08:02.674Z,14.40
2019-04-29T11:13:08.165Z,14.30
2019-04-29T11:18:13.632Z,14.90
2019-04-29T11:23:50.731Z,15.20
2019-04-29T11:28:56.162Z,14.70
2019-04-29T11:34:21.062Z,14.30
2019-04-29T11:39:27.514Z,14.60
2019-04-29T11:44:33.275Z,15.20
2019-04-29T11:49:48.062Z,15.60
2019-04-29T11:54:54.299Z,16.30
2019-04-29T12:00:15.836Z,15.60
2019-04-29T12:05:32.260Z,15.70
2019-04-29T12:10:46.663Z,15.50
2019-04-29T12:16:10.998Z,14.90
2019-04-29T12:21:36.372Z,15.20
2019-04-29T12:26:44.359Z,15.40
2019-04-29T12:32:14.359Z,15.20
2019-04-29T12:37:45.201Z,15.10
2019-04-29T12:43:25.315Z,15.50
2019-04-29T12:48:31.372Z,15.30
2019-04-29T12:53:36.749Z,14.90
2019-04-29T12:58:42.583Z,15.20
2019-04-29T13:04:03.022Z,15.40
2019-04-29T13:09:18.027Z,15.20
2019-04-29T13:14:28.611Z,15.20
2019-04-29T13:19:39.162Z,15.50
2019-04-29T13:24:45.197Z,15.50
2019-04-29T13:29:50.988Z,15.80
2019-04-29T13:35:00.211Z,16.00
2019-04-29T13:40:06.654Z,16.50
2019-04-29T13:45:14.737Z,15.60
2019-04-29T13:50:38.668Z,15.70
2019-04-29T13:55:47.677Z,15.70
2019-04-29T14:00:59.900Z,15.90
2019-04-29T14:06:06.871Z,15.70
2019-04-29T14:11:13.351Z,15.40
2019-04-29T14:16:19.495Z,15.80
2019-04-29T14:21:25.781Z,15.80
2019-04-29T14:26:36.864Z,15.50
2019-04-29T14:31:40.658Z,15.80
2019-04-29T14:36:46.973Z,15.80
2019-04-29T14:41:57.416Z,16.30
2019-04-29T14:47:13.609Z,16.30
2019-04-29T14:52:20.740Z,16.20
2019-04-29T14:57:27.150Z,16.20
2019-04-29T15:02:33.355Z,16.40
2019-04-29T15:07:39.545Z,16.00
2019-04-29T15:13:01.501Z,16.10
2019-04-29T15:18:15.871Z,16.00
2019-04-29T15:23:27.965Z,16.30
2019-04-29T15:28:24.469Z,15.80
2019-04-29T15:33:30.471Z,16.00
2019-04-29T15:38:38.860Z,15.80
2019-04-29T15:49:09.949Z,15.60
2019-04-29T15:54:18.111Z,16.00
2019-04-29T15:59:24.017Z,15.80
2019-04-29T16:04:34.608Z,15.80
2019-04-29T16:10:01.500Z,15.70
2019-04-29T16:15:07.395Z,15.70
2019-04-29T16:20:12.719Z,15.50
2019-04-29T16:25:18.026Z,15.50
2019-04-29T16:35:34.661Z,15.70
2019-04-29T16:40:41.370Z,15.60
2019-04-29T16:45:59.342Z,15.60
2019-04-29T16:51:06.698Z,15.70
2019-04-29T16:56:16.054Z,15.60
2019-04-29T17:01:18.604Z,15.50
2019-04-29T17:06:23.938Z,15.60
2019-04-29T17:11:30.690Z,15.40
2019-04-29T17:16:36.321Z,15.30
2019-04-29T17:21:41.721Z,15.40
2019-04-29T17:26:54.287Z,15.30
2019-04-29T17:32:18.100Z,14.90
2019-04-29T17:35:14.230Z,15.70
2019-04-29T17:37:24.732Z,14.90
2019-04-29T17:42:34.342Z,14.80
2019-04-29T17:47:57.694Z,14.70
2019-04-29T17:53:05.229Z,14.70
2019-04-29T17:58:19.347Z,14.70
2019-04-29T18:03:41.503Z,14.50
2019-04-29T18:09:13.492Z,14.50
2019-04-29T18:14:18.732Z,14.50
2019-04-29T18:19:40.688Z,14.30
2019-04-29T18:25:00.871Z,14.30
2019-04-29T18:30:12.134Z,14.30
2019-04-29T18:35:15.335Z,14.30
2019-04-29T18:40:22.486Z,14.20
2019-04-29T18:45:29.688Z,14.20
2019-04-29T18:50:38.891Z,14.00
2019-04-29T18:55:42.171Z,14.00
2019-04-29T19:00:52.387Z,13.90
2019-04-29T19:05:57.676Z,13.80
2019-04-29T19:11:07.153Z,13.70
2019-04-29T19:16:12.736Z,13.70
2019-04-29T19:21:17.866Z,13.70
2019-04-29T19:26:27.627Z,13.60
2019-04-29T19:31:36.602Z,13.50
2019-04-29T19:36:40.338Z,13.40
2019-04-29T19:41:50.280Z,13.30
2019-04-29T19:46:52.632Z,13.30
2019-04-29T19:51:58.094Z,13.20
2019-04-29T19:57:07.344Z,13.10
2019-04-29T20:02:11.160Z,13.10
2019-04-29T20:07:18.107Z,13.10
2019-04-29T20:12:25.690Z,13.00
2019-04-29T20:17:57.595Z,13.00
2019-04-29T20:23:03.394Z,13.00
2019-04-29T20:28:17.200Z,12.90
2019-04-29T20:33:16.538Z,12.70
2019-04-29T20:43:31.564Z,12.50
2019-04-29T20:48:37.754Z,12.30
2019-04-29T20:53:48.673Z,12.30
2019-04-29T21:04:00.565Z,12.20
2019-04-29T21:09:07.990Z,12.00
2019-04-29T21:14:20.189Z,11.90
2019-04-29T21:19:25.689Z,11.90
2019-04-29T21:24:30.592Z,11.80
2019-04-29T21:29:35.938Z,11.80
2019-04-29T21:34:50.031Z,11.70
2019-04-29T21:40:20.399Z,11.70
2019-04-29T21:45:31.268Z,11.60
2019-04-29T21:50:38.040Z,11.70
2019-04-29T21:55:43.385Z,11.60
2019-04-29T22:00:48.725Z,11.60
2019-04-29T22:05:55.232Z,11.50
2019-04-29T22:11:05.011Z,11.50
2019-04-29T22:16:11.323Z,11.50
2019-04-29T22:21:21.394Z,11.40
2019-04-29T22:26:23.330Z,11.30
2019-04-29T22:31:33.982Z,11.30
2019-04-29T22:36:36.077Z,11.20
2019-04-29T22:41:59.941Z,11.20
2019-04-29T22:47:06.115Z,11.20
2019-04-29T22:52:11.424Z,11.00
2019-04-29T22:57:16.639Z,11.00
2019-04-29T23:02:25.172Z,11.00
2019-04-29T23:07:29.006Z,11.00
2019-04-29T23:15:22.525Z,11.00
2019-04-29T23:20:45.569Z,11.00
2019-04-29T23:26:10.104Z,10.90
2019-04-29T23:31:15.302Z,10.70
2019-04-29T23:36:20.881Z,10.80
2019-04-29T23:41:32.865Z,10.70
2019-04-29T23:46:34.332Z,10.70
2019-04-29T23:51:40.129Z,10.50
2019-04-29T23:57:16.392Z,10.60
